sensor_id;sensor_type;location;lat;lon;timestamp;P1;durP1;ratioP1;P2;durP2;ratioP2
40072;SDS011;25774;52.256;9.356;2023-08-06T00:01:37;3.90;;;1.37;;
40072;SDS011;25774;52.256;9.356;2023-08-06T00:04:02;4.40;;;1.30;;
40072;SDS011;25774;52.256;9.356;2023-08-06T00:06:28;2.53;;;1.10;;
40072;SDS011;25774;52.256;9.356;2023-08-06T00:08:53;3.40;;;1.27;;
40072;SDS011;25774;52.256;9.356;2023-08-06T00:11:20;4.40;;;1.25;;
40072;SDS011;25774;52.256;9.356;2023-08-06T00:13:45;3.17;;;1.50;;
40072;SDS011;25774;52.256;9.356;2023-08-06T00:16:10;3.10;;;1.00;;
40072;SDS011;25774;52.256;9.356;2023-08-06T00:18:36;1.70;;;0.98;;
40072;SDS011;25774;52.256;9.356;2023-08-06T00:21:01;4.10;;;1.23;;
40072;SDS011;25774;52.256;9.356;2023-08-06T00:23:26;3.10;;;0.97;;
40072;SDS011;25774;52.256;9.356;2023-08-06T00:25:52;3.80;;;1.10;;
40072;SDS011;25774;52.256;9.356;2023-08-06T00:28:17;4.83;;;1.20;;
40072;SDS011;25774;52.256;9.356;2023-08-06T00:30:42;2.17;;;1.10;;
40072;SDS011;25774;52.256;9.356;2023-08-06T00:33:07;6.07;;;1.60;;
40072;SDS011;25774;52.256;9.356;2023-08-06T00:35:33;2.67;;;1.30;;
40072;SDS011;25774;52.256;9.356;2023-08-06T00:40:26;4.25;;;1.58;;
40072;SDS011;25774;52.256;9.356;2023-08-06T00:42:53;3.58;;;1.65;;
40072;SDS011;25774;52.256;9.356;2023-08-06T00:45:18;6.60;;;1.43;;
40072;SDS011;25774;52.256;9.356;2023-08-06T00:47:45;5.00;;;1.87;;
40072;SDS011;25774;52.256;9.356;2023-08-06T00:50:11;2.72;;;1.58;;
40072;SDS011;25774;52.256;9.356;2023-08-06T00:52:36;4.63;;;2.23;;
40072;SDS011;25774;52.256;9.356;2023-08-06T00:55:01;3.07;;;1.40;;
40072;SDS011;25774;52.256;9.356;2023-08-06T00:57:27;3.90;;;1.60;;
40072;SDS011;25774;52.256;9.356;2023-08-06T00:59:52;3.55;;;1.63;;
40072;SDS011;25774;52.256;9.356;2023-08-06T01:02:18;2.10;;;1.15;;
40072;SDS011;25774;52.256;9.356;2023-08-06T01:04:44;2.63;;;1.50;;
40072;SDS011;25774;52.256;9.356;2023-08-06T01:09:35;2.40;;;1.13;;
40072;SDS011;25774;52.256;9.356;2023-08-06T01:12:15;3.83;;;1.48;;
40072;SDS011;25774;52.256;9.356;2023-08-06T01:14:48;3.15;;;1.40;;
40072;SDS011;25774;52.256;9.356;2023-08-06T01:17:18;2.90;;;1.70;;
40072;SDS011;25774;52.256;9.356;2023-08-06T01:19:43;2.90;;;1.40;;
40072;SDS011;25774;52.256;9.356;2023-08-06T01:22:09;3.27;;;1.30;;
40072;SDS011;25774;52.256;9.356;2023-08-06T01:27:06;3.38;;;1.77;;
40072;SDS011;25774;52.256;9.356;2023-08-06T01:29:35;5.20;;;1.60;;
40072;SDS011;25774;52.256;9.356;2023-08-06T01:32:05;4.28;;;1.85;;
40072;SDS011;25774;52.256;9.356;2023-08-06T01:34:31;3.13;;;1.35;;
40072;SDS011;25774;52.256;9.356;2023-08-06T01:36:57;2.63;;;1.35;;
40072;SDS011;25774;52.256;9.356;2023-08-06T01:39:24;1.80;;;1.20;;
40072;SDS011;25774;52.256;9.356;2023-08-06T01:41:49;4.77;;;1.23;;
40072;SDS011;25774;52.256;9.356;2023-08-06T01:44:15;3.27;;;1.40;;
40072;SDS011;25774;52.256;9.356;2023-08-06T01:46:40;4.80;;;1.50;;
40072;SDS011;25774;52.256;9.356;2023-08-06T01:49:05;4.07;;;1.40;;
40072;SDS011;25774;52.256;9.356;2023-08-06T01:51:31;1.67;;;1.20;;
40072;SDS011;25774;52.256;9.356;2023-08-06T01:53:57;3.13;;;1.47;;
40072;SDS011;25774;52.256;9.356;2023-08-06T01:58:47;2.37;;;1.30;;
40072;SDS011;25774;52.256;9.356;2023-08-06T02:01:12;2.83;;;1.20;;
40072;SDS011;25774;52.256;9.356;2023-08-06T02:03:38;2.53;;;1.10;;
40072;SDS011;25774;52.256;9.356;2023-08-06T02:06:03;1.83;;;0.90;;
40072;SDS011;25774;52.256;9.356;2023-08-06T02:08:30;1.93;;;1.20;;
40072;SDS011;25774;52.256;9.356;2023-08-06T02:10:56;3.63;;;1.42;;
40072;SDS011;25774;52.256;9.356;2023-08-06T02:13:22;2.30;;;1.40;;
40072;SDS011;25774;52.256;9.356;2023-08-06T02:15:48;4.93;;;1.30;;
40072;SDS011;25774;52.256;9.356;2023-08-06T02:18:13;2.90;;;1.20;;
40072;SDS011;25774;52.256;9.356;2023-08-06T02:20:39;2.00;;;1.10;;
40072;SDS011;25774;52.256;9.356;2023-08-06T02:23:05;2.93;;;1.50;;
40072;SDS011;25774;52.256;9.356;2023-08-06T02:25:30;3.27;;;1.30;;
40072;SDS011;25774;52.256;9.356;2023-08-06T02:27:55;1.70;;;0.87;;
40072;SDS011;25774;52.256;9.356;2023-08-06T02:30:21;2.30;;;1.23;;
40072;SDS011;25774;52.256;9.356;2023-08-06T02:35:12;2.40;;;1.20;;
40072;SDS011;25774;52.256;9.356;2023-08-06T02:37:37;2.30;;;1.30;;
40072;SDS011;25774;52.256;9.356;2023-08-06T02:40:02;1.93;;;1.20;;
40072;SDS011;25774;52.256;9.356;2023-08-06T02:42:28;2.35;;;1.40;;
40072;SDS011;25774;52.256;9.356;2023-08-06T02:44:53;1.90;;;0.90;;
40072;SDS011;25774;52.256;9.356;2023-08-06T02:47:20;3.38;;;1.38;;
40072;SDS011;25774;52.256;9.356;2023-08-06T02:49:48;2.60;;;1.47;;
40072;SDS011;25774;52.256;9.356;2023-08-06T02:52:13;3.17;;;1.33;;
40072;SDS011;25774;52.256;9.356;2023-08-06T02:54:38;4.57;;;1.60;;
40072;SDS011;25774;52.256;9.356;2023-08-06T02:57:04;1.60;;;1.10;;
40072;SDS011;25774;52.256;9.356;2023-08-06T02:59:29;3.33;;;1.27;;
40072;SDS011;25774;52.256;9.356;2023-08-06T03:01:56;3.92;;;1.00;;
40072;SDS011;25774;52.256;9.356;2023-08-06T03:04:22;6.88;;;1.45;;
40072;SDS011;25774;52.256;9.356;2023-08-06T03:09:12;5.15;;;1.40;;
40072;SDS011;25774;52.256;9.356;2023-08-06T03:11:37;3.60;;;1.17;;
40072;SDS011;25774;52.256;9.356;2023-08-06T03:14:03;5.77;;;1.40;;
40072;SDS011;25774;52.256;9.356;2023-08-06T03:16:30;4.57;;;1.23;;
40072;SDS011;25774;52.256;9.356;2023-08-06T03:18:55;3.08;;;1.27;;
40072;SDS011;25774;52.256;9.356;2023-08-06T03:21:20;3.07;;;1.23;;
40072;SDS011;25774;52.256;9.356;2023-08-06T03:23:49;2.43;;;1.00;;
40072;SDS011;25774;52.256;9.356;2023-08-06T03:26:14;1.60;;;0.98;;
40072;SDS011;25774;52.256;9.356;2023-08-06T03:28:39;1.90;;;1.07;;
40072;SDS011;25774;52.256;9.356;2023-08-06T03:31:04;2.13;;;1.10;;
40072;SDS011;25774;52.256;9.356;2023-08-06T03:33:31;2.80;;;1.20;;
40072;SDS011;25774;52.256;9.356;2023-08-06T03:38:22;2.17;;;1.10;;
40072;SDS011;25774;52.256;9.356;2023-08-06T03:40:48;2.87;;;1.20;;
40072;SDS011;25774;52.256;9.356;2023-08-06T03:43:14;2.33;;;1.48;;
40072;SDS011;25774;52.256;9.356;2023-08-06T03:45:40;3.92;;;1.20;;
40072;SDS011;25774;52.256;9.356;2023-08-06T03:48:05;2.47;;;1.45;;
40072;SDS011;25774;52.256;9.356;2023-08-06T03:50:30;3.23;;;1.40;;
40072;SDS011;25774;52.256;9.356;2023-08-06T03:52:57;2.53;;;1.43;;
40072;SDS011;25774;52.256;9.356;2023-08-06T03:57:47;2.00;;;1.33;;
40072;SDS011;25774;52.256;9.356;2023-08-06T04:00:18;3.33;;;1.43;;
40072;SDS011;25774;52.256;9.356;2023-08-06T04:02:44;2.20;;;1.30;;
40072;SDS011;25774;52.256;9.356;2023-08-06T04:05:11;1.53;;;0.97;;
40072;SDS011;25774;52.256;9.356;2023-08-06T04:07:37;3.15;;;1.25;;
40072;SDS011;25774;52.256;9.356;2023-08-06T04:10:03;1.58;;;1.02;;
40072;SDS011;25774;52.256;9.356;2023-08-06T04:12:29;2.72;;;1.08;;
40072;SDS011;25774;52.256;9.356;2023-08-06T04:14:57;2.88;;;1.20;;
40072;SDS011;25774;52.256;9.356;2023-08-06T04:17:23;2.72;;;1.08;;
40072;SDS011;25774;52.256;9.356;2023-08-06T04:19:52;2.70;;;1.10;;
40072;SDS011;25774;52.256;9.356;2023-08-06T04:22:17;2.42;;;1.33;;
40072;SDS011;25774;52.256;9.356;2023-08-06T04:24:43;4.38;;;1.52;;
40072;SDS011;25774;52.256;9.356;2023-08-06T04:27:09;1.47;;;0.90;;
40072;SDS011;25774;52.256;9.356;2023-08-06T04:29:34;3.85;;;1.20;;
40072;SDS011;25774;52.256;9.356;2023-08-06T04:31:59;1.67;;;0.80;;
40072;SDS011;25774;52.256;9.356;2023-08-06T04:34:24;3.83;;;1.53;;
40072;SDS011;25774;52.256;9.356;2023-08-06T04:36:50;5.43;;;1.10;;
40072;SDS011;25774;52.256;9.356;2023-08-06T04:39:15;1.50;;;0.90;;
40072;SDS011;25774;52.256;9.356;2023-08-06T04:41:41;2.33;;;1.20;;
40072;SDS011;25774;52.256;9.356;2023-08-06T04:46:31;2.63;;;1.10;;
40072;SDS011;25774;52.256;9.356;2023-08-06T04:48:59;2.53;;;1.20;;
40072;SDS011;25774;52.256;9.356;2023-08-06T04:51:24;1.60;;;1.00;;
40072;SDS011;25774;52.256;9.356;2023-08-06T04:53:49;2.33;;;0.90;;
40072;SDS011;25774;52.256;9.356;2023-08-06T04:56:15;3.53;;;1.07;;
40072;SDS011;25774;52.256;9.356;2023-08-06T04:58:50;2.20;;;0.90;;
40072;SDS011;25774;52.256;9.356;2023-08-06T05:01:16;1.67;;;1.02;;
40072;SDS011;25774;52.256;9.356;2023-08-06T05:03:43;4.23;;;1.33;;
40072;SDS011;25774;52.256;9.356;2023-08-06T05:06:08;4.25;;;0.80;;
40072;SDS011;25774;52.256;9.356;2023-08-06T05:08:52;2.90;;;0.77;;
40072;SDS011;25774;52.256;9.356;2023-08-06T05:11:17;2.22;;;1.13;;
40072;SDS011;25774;52.256;9.356;2023-08-06T05:13:42;6.27;;;1.20;;
40072;SDS011;25774;52.256;9.356;2023-08-06T05:16:07;2.17;;;1.10;;
40072;SDS011;25774;52.256;9.356;2023-08-06T05:18:33;2.80;;;0.90;;
40072;SDS011;25774;52.256;9.356;2023-08-06T05:20:59;2.97;;;1.15;;
40072;SDS011;25774;52.256;9.356;2023-08-06T05:23:24;2.40;;;1.40;;
40072;SDS011;25774;52.256;9.356;2023-08-06T05:25:50;4.27;;;0.90;;
40072;SDS011;25774;52.256;9.356;2023-08-06T05:28:15;3.13;;;0.90;;
40072;SDS011;25774;52.256;9.356;2023-08-06T05:30:40;4.50;;;1.10;;
40072;SDS011;25774;52.256;9.356;2023-08-06T05:33:06;2.97;;;1.05;;
40072;SDS011;25774;52.256;9.356;2023-08-06T05:35:31;3.17;;;1.20;;
40072;SDS011;25774;52.256;9.356;2023-08-06T05:37:56;7.03;;;1.00;;
40072;SDS011;25774;52.256;9.356;2023-08-06T05:40:21;3.13;;;1.07;;
40072;SDS011;25774;52.256;9.356;2023-08-06T05:42:47;2.40;;;1.10;;
40072;SDS011;25774;52.256;9.356;2023-08-06T05:45:12;4.20;;;1.43;;
40072;SDS011;25774;52.256;9.356;2023-08-06T05:47:37;2.17;;;1.00;;
40072;SDS011;25774;52.256;9.356;2023-08-06T05:50:02;2.20;;;0.90;;
40072;SDS011;25774;52.256;9.356;2023-08-06T05:52:28;1.30;;;0.90;;
40072;SDS011;25774;52.256;9.356;2023-08-06T05:54:53;1.23;;;0.77;;
40072;SDS011;25774;52.256;9.356;2023-08-06T05:57:20;2.22;;;1.10;;
40072;SDS011;25774;52.256;9.356;2023-08-06T05:59:45;1.40;;;0.87;;
40072;SDS011;25774;52.256;9.356;2023-08-06T06:02:10;2.40;;;0.90;;
40072;SDS011;25774;52.256;9.356;2023-08-06T06:04:36;2.60;;;1.20;;
40072;SDS011;25774;52.256;9.356;2023-08-06T06:09:27;2.10;;;1.13;;
40072;SDS011;25774;52.256;9.356;2023-08-06T06:11:52;2.13;;;1.47;;
40072;SDS011;25774;52.256;9.356;2023-08-06T06:14:18;1.87;;;1.20;;
40072;SDS011;25774;52.256;9.356;2023-08-06T06:16:43;2.53;;;1.38;;
40072;SDS011;25774;52.256;9.356;2023-08-06T06:19:09;3.85;;;1.20;;
40072;SDS011;25774;52.256;9.356;2023-08-06T06:21:34;1.40;;;1.00;;
40072;SDS011;25774;52.256;9.356;2023-08-06T06:23:59;2.20;;;1.43;;
40072;SDS011;25774;52.256;9.356;2023-08-06T06:26:26;2.93;;;1.10;;
40072;SDS011;25774;52.256;9.356;2023-08-06T06:31:19;3.92;;;1.33;;
40072;SDS011;25774;52.256;9.356;2023-08-06T06:33:44;4.32;;;1.40;;
40072;SDS011;25774;52.256;9.356;2023-08-06T06:36:09;2.30;;;1.43;;
40072;SDS011;25774;52.256;9.356;2023-08-06T06:38:35;2.73;;;1.20;;
40072;SDS011;25774;52.256;9.356;2023-08-06T06:41:00;3.20;;;1.47;;
40072;SDS011;25774;52.256;9.356;2023-08-06T06:43:25;3.53;;;1.47;;
40072;SDS011;25774;52.256;9.356;2023-08-06T06:45:57;2.30;;;1.10;;
40072;SDS011;25774;52.256;9.356;2023-08-06T06:48:25;3.40;;;1.40;;
40072;SDS011;25774;52.256;9.356;2023-08-06T06:50:51;2.88;;;1.30;;
40072;SDS011;25774;52.256;9.356;2023-08-06T06:53:20;2.30;;;1.40;;
40072;SDS011;25774;52.256;9.356;2023-08-06T06:55:46;1.80;;;1.30;;
40072;SDS011;25774;52.256;9.356;2023-08-06T06:58:14;4.00;;;1.48;;
40072;SDS011;25774;52.256;9.356;2023-08-06T07:00:39;4.05;;;1.42;;
40072;SDS011;25774;52.256;9.356;2023-08-06T07:03:05;1.87;;;1.27;;
40072;SDS011;25774;52.256;9.356;2023-08-06T07:05:30;2.80;;;1.30;;
40072;SDS011;25774;52.256;9.356;2023-08-06T07:07:55;2.50;;;1.20;;
40072;SDS011;25774;52.256;9.356;2023-08-06T07:10:20;2.20;;;1.17;;
40072;SDS011;25774;52.256;9.356;2023-08-06T07:12:46;2.43;;;1.37;;
40072;SDS011;25774;52.256;9.356;2023-08-06T07:15:11;2.43;;;1.00;;
40072;SDS011;25774;52.256;9.356;2023-08-06T07:17:36;5.18;;;1.67;;
40072;SDS011;25774;52.256;9.356;2023-08-06T07:20:02;2.67;;;1.43;;
40072;SDS011;25774;52.256;9.356;2023-08-06T07:22:27;2.25;;;1.10;;
40072;SDS011;25774;52.256;9.356;2023-08-06T07:24:53;2.10;;;1.40;;
40072;SDS011;25774;52.256;9.356;2023-08-06T07:27:18;2.87;;;1.13;;
40072;SDS011;25774;52.256;9.356;2023-08-06T07:29:43;2.00;;;1.27;;
40072;SDS011;25774;52.256;9.356;2023-08-06T07:32:10;2.13;;;1.20;;
40072;SDS011;25774;52.256;9.356;2023-08-06T07:37:00;2.78;;;1.25;;
40072;SDS011;25774;52.256;9.356;2023-08-06T07:39:25;4.40;;;1.60;;
40072;SDS011;25774;52.256;9.356;2023-08-06T07:41:53;2.00;;;1.33;;
40072;SDS011;25774;52.256;9.356;2023-08-06T07:44:18;2.60;;;1.30;;
40072;SDS011;25774;52.256;9.356;2023-08-06T07:46:43;2.60;;;1.50;;
40072;SDS011;25774;52.256;9.356;2023-08-06T07:49:09;2.00;;;1.30;;
40072;SDS011;25774;52.256;9.356;2023-08-06T07:51:36;2.67;;;1.55;;
40072;SDS011;25774;52.256;9.356;2023-08-06T07:54:02;1.90;;;1.30;;
40072;SDS011;25774;52.256;9.356;2023-08-06T07:56:28;3.38;;;1.70;;
40072;SDS011;25774;52.256;9.356;2023-08-06T07:58:53;5.10;;;1.70;;
40072;SDS011;25774;52.256;9.356;2023-08-06T08:01:18;2.77;;;1.73;;
40072;SDS011;25774;52.256;9.356;2023-08-06T08:03:44;2.97;;;1.87;;
40072;SDS011;25774;52.256;9.356;2023-08-06T08:06:09;1.87;;;1.33;;
40072;SDS011;25774;52.256;9.356;2023-08-06T08:08:34;2.83;;;1.40;;
40072;SDS011;25774;52.256;9.356;2023-08-06T08:11:05;2.20;;;1.13;;
40072;SDS011;25774;52.256;9.356;2023-08-06T08:13:30;2.72;;;1.10;;
40072;SDS011;25774;52.256;9.356;2023-08-06T08:15:58;3.70;;;1.20;;
40072;SDS011;25774;52.256;9.356;2023-08-06T08:18:24;5.05;;;1.00;;
40072;SDS011;25774;52.256;9.356;2023-08-06T08:20:49;1.50;;;1.10;;
40072;SDS011;25774;52.256;9.356;2023-08-06T08:23:14;2.13;;;1.20;;
40072;SDS011;25774;52.256;9.356;2023-08-06T08:25:39;2.30;;;1.40;;
40072;SDS011;25774;52.256;9.356;2023-08-06T08:28:05;1.40;;;1.10;;
40072;SDS011;25774;52.256;9.356;2023-08-06T08:30:30;1.53;;;1.07;;
40072;SDS011;25774;52.256;9.356;2023-08-06T08:32:55;2.33;;;1.17;;
40072;SDS011;25774;52.256;9.356;2023-08-06T08:35:20;2.47;;;1.47;;
40072;SDS011;25774;52.256;9.356;2023-08-06T08:37:45;2.60;;;1.30;;
40072;SDS011;25774;52.256;9.356;2023-08-06T08:40:11;2.20;;;1.30;;
40072;SDS011;25774;52.256;9.356;2023-08-06T08:42:36;2.08;;;1.38;;
40072;SDS011;25774;52.256;9.356;2023-08-06T08:45:02;1.70;;;1.13;;
40072;SDS011;25774;52.256;9.356;2023-08-06T08:47:29;1.95;;;1.08;;
40072;SDS011;25774;52.256;9.356;2023-08-06T08:52:20;1.60;;;1.00;;
40072;SDS011;25774;52.256;9.356;2023-08-06T08:57:16;1.75;;;1.00;;
40072;SDS011;25774;52.256;9.356;2023-08-06T08:59:41;1.77;;;1.10;;
40072;SDS011;25774;52.256;9.356;2023-08-06T09:02:07;2.03;;;1.17;;
40072;SDS011;25774;52.256;9.356;2023-08-06T09:04:34;2.97;;;1.20;;
40072;SDS011;25774;52.256;9.356;2023-08-06T09:07:02;1.58;;;1.10;;
40072;SDS011;25774;52.256;9.356;2023-08-06T09:09:33;2.05;;;1.10;;
40072;SDS011;25774;52.256;9.356;2023-08-06T09:12:01;2.42;;;1.00;;
40072;SDS011;25774;52.256;9.356;2023-08-06T09:14:29;2.00;;;1.20;;
40072;SDS011;25774;52.256;9.356;2023-08-06T09:16:54;1.77;;;1.13;;
40072;SDS011;25774;52.256;9.356;2023-08-06T09:21:46;1.42;;;0.90;;
40072;SDS011;25774;52.256;9.356;2023-08-06T09:24:14;1.60;;;1.20;;
40072;SDS011;25774;52.256;9.356;2023-08-06T09:29:05;2.10;;;1.00;;
40072;SDS011;25774;52.256;9.356;2023-08-06T09:33:55;1.58;;;1.00;;
40072;SDS011;25774;52.256;9.356;2023-08-06T09:36:24;2.05;;;1.08;;
40072;SDS011;25774;52.256;9.356;2023-08-06T09:41:25;2.35;;;0.90;;
40072;SDS011;25774;52.256;9.356;2023-08-06T09:43:51;2.05;;;1.02;;
40072;SDS011;25774;52.256;9.356;2023-08-06T09:48:44;3.73;;;1.10;;
40072;SDS011;25774;52.256;9.356;2023-08-06T09:51:10;2.47;;;0.90;;
40072;SDS011;25774;52.256;9.356;2023-08-06T09:56:02;1.83;;;1.00;;
40072;SDS011;25774;52.256;9.356;2023-08-06T09:58:29;2.33;;;0.88;;
40072;SDS011;25774;52.256;9.356;2023-08-06T10:00:57;1.70;;;1.00;;
40072;SDS011;25774;52.256;9.356;2023-08-06T10:03:22;1.83;;;0.90;;
40072;SDS011;25774;52.256;9.356;2023-08-06T10:08:13;1.90;;;0.85;;
40072;SDS011;25774;52.256;9.356;2023-08-06T10:13:05;5.93;;;1.50;;
40072;SDS011;25774;52.256;9.356;2023-08-06T10:15:32;2.38;;;1.17;;
40072;SDS011;25774;52.256;9.356;2023-08-06T10:17:58;2.00;;;1.10;;
40072;SDS011;25774;52.256;9.356;2023-08-06T10:22:59;3.70;;;0.95;;
40072;SDS011;25774;52.256;9.356;2023-08-06T10:25:24;2.45;;;1.02;;
40072;SDS011;25774;52.256;9.356;2023-08-06T10:30:21;1.80;;;1.05;;
40072;SDS011;25774;52.256;9.356;2023-08-06T10:32:50;2.35;;;1.10;;
40072;SDS011;25774;52.256;9.356;2023-08-06T10:38:21;2.38;;;1.08;;
40072;SDS011;25774;52.256;9.356;2023-08-06T10:41:14;1.75;;;0.98;;
40072;SDS011;25774;52.256;9.356;2023-08-06T10:43:36;2.08;;;1.23;;
40072;SDS011;25774;52.256;9.356;2023-08-06T10:46:50;2.10;;;0.93;;
40072;SDS011;25774;52.256;9.356;2023-08-06T10:48:50;3.58;;;1.20;;
40072;SDS011;25774;52.256;9.356;2023-08-06T10:53:47;3.00;;;1.10;;
40072;SDS011;25774;52.256;9.356;2023-08-06T10:56:13;2.65;;;1.40;;
40072;SDS011;25774;52.256;9.356;2023-08-06T11:01:04;5.00;;;1.40;;
40072;SDS011;25774;52.256;9.356;2023-08-06T11:03:30;4.68;;;1.83;;
40072;SDS011;25774;52.256;9.356;2023-08-06T11:05:57;3.33;;;1.40;;
40072;SDS011;25774;52.256;9.356;2023-08-06T11:08:26;3.45;;;1.67;;
40072;SDS011;25774;52.256;9.356;2023-08-06T11:10:52;2.65;;;1.13;;
40072;SDS011;25774;52.256;9.356;2023-08-06T11:13:18;2.17;;;1.20;;
40072;SDS011;25774;52.256;9.356;2023-08-06T11:15:44;3.28;;;1.50;;
40072;SDS011;25774;52.256;9.356;2023-08-06T11:20:36;2.45;;;1.52;;
40072;SDS011;25774;52.256;9.356;2023-08-06T11:23:02;3.97;;;1.70;;
40072;SDS011;25774;52.256;9.356;2023-08-06T11:25:27;4.40;;;1.95;;
40072;SDS011;25774;52.256;9.356;2023-08-06T11:30:17;5.47;;;2.13;;
40072;SDS011;25774;52.256;9.356;2023-08-06T11:32:49;4.47;;;1.93;;
40072;SDS011;25774;52.256;9.356;2023-08-06T11:35:14;4.00;;;2.08;;
40072;SDS011;25774;52.256;9.356;2023-08-06T11:37:43;4.75;;;2.25;;
40072;SDS011;25774;52.256;9.356;2023-08-06T11:40:11;5.88;;;1.95;;
40072;SDS011;25774;52.256;9.356;2023-08-06T11:42:37;3.03;;;1.90;;
40072;SDS011;25774;52.256;9.356;2023-08-06T11:45:02;3.73;;;2.13;;
40072;SDS011;25774;52.256;9.356;2023-08-06T11:47:27;3.83;;;1.88;;
40072;SDS011;25774;52.256;9.356;2023-08-06T11:49:53;2.87;;;1.87;;
40072;SDS011;25774;52.256;9.356;2023-08-06T11:52:25;3.43;;;1.80;;
40072;SDS011;25774;52.256;9.356;2023-08-06T11:55:03;2.80;;;1.58;;
40072;SDS011;25774;52.256;9.356;2023-08-06T11:57:31;2.28;;;1.38;;
40072;SDS011;25774;52.256;9.356;2023-08-06T12:00:01;3.35;;;1.83;;
40072;SDS011;25774;52.256;9.356;2023-08-06T12:02:26;3.40;;;1.70;;
40072;SDS011;25774;52.256;9.356;2023-08-06T12:05:11;4.38;;;2.38;;
40072;SDS011;25774;52.256;9.356;2023-08-06T12:07:37;4.78;;;1.90;;
40072;SDS011;25774;52.256;9.356;2023-08-06T12:12:28;4.30;;;2.40;;
40072;SDS011;25774;52.256;9.356;2023-08-06T12:14:54;3.90;;;2.20;;
40072;SDS011;25774;52.256;9.356;2023-08-06T12:17:20;2.92;;;1.77;;
40072;SDS011;25774;52.256;9.356;2023-08-06T12:22:12;2.85;;;1.88;;
40072;SDS011;25774;52.256;9.356;2023-08-06T12:24:39;3.83;;;2.00;;
40072;SDS011;25774;52.256;9.356;2023-08-06T12:29:29;2.90;;;1.80;;
40072;SDS011;25774;52.256;9.356;2023-08-06T12:31:58;2.92;;;1.90;;
40072;SDS011;25774;52.256;9.356;2023-08-06T12:34:23;3.72;;;1.50;;
40072;SDS011;25774;52.256;9.356;2023-08-06T12:39:14;2.00;;;1.52;;
40072;SDS011;25774;52.256;9.356;2023-08-06T12:41:39;2.47;;;1.20;;
40072;SDS011;25774;52.256;9.356;2023-08-06T12:44:04;3.27;;;1.70;;
40072;SDS011;25774;52.256;9.356;2023-08-06T12:46:31;2.78;;;1.50;;
40072;SDS011;25774;52.256;9.356;2023-08-06T12:48:56;2.50;;;1.40;;
40072;SDS011;25774;52.256;9.356;2023-08-06T12:51:22;4.32;;;1.58;;
40072;SDS011;25774;52.256;9.356;2023-08-06T12:56:14;2.40;;;1.40;;
40072;SDS011;25774;52.256;9.356;2023-08-06T12:58:39;2.00;;;1.10;;
40072;SDS011;25774;52.256;9.356;2023-08-06T13:03:31;2.13;;;1.10;;
40072;SDS011;25774;52.256;9.356;2023-08-06T13:08:23;1.83;;;1.10;;
40072;SDS011;25774;52.256;9.356;2023-08-06T13:10:51;2.25;;;1.17;;
40072;SDS011;25774;52.256;9.356;2023-08-06T13:13:16;1.88;;;1.20;;
40072;SDS011;25774;52.256;9.356;2023-08-06T13:18:08;4.18;;;1.65;;
40072;SDS011;25774;52.256;9.356;2023-08-06T13:20:37;2.92;;;1.30;;
40072;SDS011;25774;52.256;9.356;2023-08-06T13:23:03;3.30;;;1.30;;
40072;SDS011;25774;52.256;9.356;2023-08-06T13:27:55;2.70;;;1.30;;
40072;SDS011;25774;52.256;9.356;2023-08-06T13:32:45;2.93;;;1.47;;
40072;SDS011;25774;52.256;9.356;2023-08-06T13:37:36;2.50;;;1.27;;
40072;SDS011;25774;52.256;9.356;2023-08-06T13:42:28;2.60;;;1.37;;
40072;SDS011;25774;52.256;9.356;2023-08-06T13:47:26;4.47;;;1.67;;
40072;SDS011;25774;52.256;9.356;2023-08-06T13:49:52;3.45;;;1.83;;
40072;SDS011;25774;52.256;9.356;2023-08-06T13:52:18;2.72;;;1.80;;
40072;SDS011;25774;52.256;9.356;2023-08-06T13:57:09;5.20;;;2.47;;
40072;SDS011;25774;52.256;9.356;2023-08-06T13:59:35;7.13;;;2.33;;
40072;SDS011;25774;52.256;9.356;2023-08-06T14:02:00;4.57;;;2.45;;
40072;SDS011;25774;52.256;9.356;2023-08-06T14:06:51;3.95;;;2.00;;
40072;SDS011;25774;52.256;9.356;2023-08-06T14:09:16;4.30;;;2.53;;
40072;SDS011;25774;52.256;9.356;2023-08-06T14:11:43;3.92;;;2.15;;
40072;SDS011;25774;52.256;9.356;2023-08-06T14:16:35;3.92;;;2.05;;
40072;SDS011;25774;52.256;9.356;2023-08-06T14:19:01;3.45;;;1.88;;
40072;SDS011;25774;52.256;9.356;2023-08-06T14:21:26;2.63;;;1.73;;
40072;SDS011;25774;52.256;9.356;2023-08-06T14:26:17;3.38;;;2.00;;
40072;SDS011;25774;52.256;9.356;2023-08-06T14:31:07;3.83;;;2.10;;
40072;SDS011;25774;52.256;9.356;2023-08-06T14:33:35;2.80;;;1.80;;
40072;SDS011;25774;52.256;9.356;2023-08-06T14:36:01;4.00;;;2.30;;
40072;SDS011;25774;52.256;9.356;2023-08-06T14:38:27;3.65;;;1.85;;
40072;SDS011;25774;52.256;9.356;2023-08-06T14:43:19;3.33;;;1.40;;
40072;SDS011;25774;52.256;9.356;2023-08-06T14:45:44;2.13;;;1.63;;
40072;SDS011;25774;52.256;9.356;2023-08-06T14:50:36;3.33;;;1.53;;
40072;SDS011;25774;52.256;9.356;2023-08-06T14:53:02;1.92;;;1.23;;
40072;SDS011;25774;52.256;9.356;2023-08-06T14:55:27;2.33;;;1.33;;
40072;SDS011;25774;52.256;9.356;2023-08-06T15:00:18;3.30;;;1.73;;
40072;SDS011;25774;52.256;9.356;2023-08-06T15:05:09;2.80;;;1.30;;
40072;SDS011;25774;52.256;9.356;2023-08-06T15:07:34;2.90;;;1.40;;
40072;SDS011;25774;52.256;9.356;2023-08-06T15:12:25;4.30;;;1.63;;
40072;SDS011;25774;52.256;9.356;2023-08-06T15:14:50;2.30;;;1.30;;
40072;SDS011;25774;52.256;9.356;2023-08-06T15:17:16;2.97;;;1.50;;
40072;SDS011;25774;52.256;9.356;2023-08-06T15:22:09;4.15;;;1.58;;
40072;SDS011;25774;52.256;9.356;2023-08-06T15:24:41;2.17;;;1.13;;
40072;SDS011;25774;52.256;9.356;2023-08-06T15:27:08;2.55;;;1.27;;
40072;SDS011;25774;52.256;9.356;2023-08-06T15:29:35;1.55;;;0.95;;
40072;SDS011;25774;52.256;9.356;2023-08-06T15:32:00;1.70;;;0.90;;
40072;SDS011;25774;52.256;9.356;2023-08-06T15:36:51;1.48;;;0.80;;
40072;SDS011;25774;52.256;9.356;2023-08-06T15:39:16;1.52;;;0.88;;
40072;SDS011;25774;52.256;9.356;2023-08-06T15:41:41;1.23;;;0.73;;
40072;SDS011;25774;52.256;9.356;2023-08-06T15:44:07;1.53;;;0.83;;
40072;SDS011;25774;52.256;9.356;2023-08-06T15:46:32;1.30;;;0.73;;
40072;SDS011;25774;52.256;9.356;2023-08-06T15:48:59;1.08;;;0.65;;
40072;SDS011;25774;52.256;9.356;2023-08-06T15:53:50;1.40;;;0.83;;
40072;SDS011;25774;52.256;9.356;2023-08-06T15:56:15;1.40;;;0.73;;
40072;SDS011;25774;52.256;9.356;2023-08-06T16:01:05;1.90;;;0.80;;
40072;SDS011;25774;52.256;9.356;2023-08-06T16:03:31;1.43;;;0.70;;
40072;SDS011;25774;52.256;9.356;2023-08-06T16:08:28;1.77;;;0.85;;
40072;SDS011;25774;52.256;9.356;2023-08-06T16:13:19;1.97;;;1.10;;
40072;SDS011;25774;52.256;9.356;2023-08-06T16:15:44;3.60;;;1.20;;
40072;SDS011;25774;52.256;9.356;2023-08-06T16:20:34;1.98;;;1.00;;
40072;SDS011;25774;52.256;9.356;2023-08-06T16:22:59;2.93;;;1.40;;
40072;SDS011;25774;52.256;9.356;2023-08-06T16:27:51;2.65;;;1.10;;
40072;SDS011;25774;52.256;9.356;2023-08-06T16:30:16;1.65;;;0.82;;
40072;SDS011;25774;52.256;9.356;2023-08-06T16:35:07;1.53;;;0.93;;
40072;SDS011;25774;52.256;9.356;2023-08-06T16:37:34;1.52;;;1.00;;
40072;SDS011;25774;52.256;9.356;2023-08-06T16:42:24;3.22;;;1.13;;
40072;SDS011;25774;52.256;9.356;2023-08-06T16:44:50;2.40;;;1.17;;
40072;SDS011;25774;52.256;9.356;2023-08-06T16:47:17;1.75;;;1.00;;
40072;SDS011;25774;52.256;9.356;2023-08-06T16:49:42;3.30;;;1.15;;
40072;SDS011;25774;52.256;9.356;2023-08-06T16:54:35;1.67;;;1.00;;
40072;SDS011;25774;52.256;9.356;2023-08-06T16:57:01;1.90;;;0.95;;
40072;SDS011;25774;52.256;9.356;2023-08-06T16:59:26;2.35;;;1.10;;
40072;SDS011;25774;52.256;9.356;2023-08-06T17:01:52;2.55;;;1.10;;
40072;SDS011;25774;52.256;9.356;2023-08-06T17:04:17;2.50;;;1.20;;
40072;SDS011;25774;52.256;9.356;2023-08-06T17:06:42;2.83;;;1.30;;
40072;SDS011;25774;52.256;9.356;2023-08-06T17:09:09;3.33;;;1.40;;
40072;SDS011;25774;52.256;9.356;2023-08-06T17:11:35;3.60;;;1.10;;
40072;SDS011;25774;52.256;9.356;2023-08-06T17:14:00;2.10;;;1.13;;
40072;SDS011;25774;52.256;9.356;2023-08-06T17:16:25;1.70;;;1.00;;